EW1191 Oak Harbor WA US current weather conditions

sailwx.info

Wind from 323 at 3 knots gusting 6

Air temperature 13.9° C
Dewpoint 11.2° C

Last reported at 2020-Aug-13 16:03 UTC.
Time now 2020-Aug-13 16:46 UTC

Location: N 48°18' W 122°42'.
View on Google Maps.

See reports from other nearby stations

  
Tides and Currents Weather Stations Pressure Air Temp Water Temp Dewpoint Dewpoint Depression Visibility Wind Speed Wind Dir Waves Ship Positions
date/time (UTC)wind fromknots sea level pressurealtimeterstation pressurevisibilityair tempwater tempwave heightnotes
2020-Aug-13 16:03 323 3 gusting 6 13.9
2020-Aug-13 15:03 310 2 gusting 6 12.8
2020-Aug-13 14:03 322 2 gusting 7 12.2
2020-Aug-13 13:03 318 0 gusting 5 11.7
2020-Aug-13 12:03 339 1 gusting 7 11.7
2020-Aug-13 11:03 329 2 gusting 6 11.7
2020-Aug-13 10:03 330 1 gusting 6 12.2
2020-Aug-13 09:03 325 2 gusting 6 12.2
2020-Aug-13 08:03 309 4 gusting 7 12.8
2020-Aug-13 07:03 138 2 gusting 5 12.8
2020-Aug-13 06:03 349 3 gusting 10 12.8
2020-Aug-13 05:03 346 4 gusting 11 13.3
2020-Aug-13 04:03 333 4 gusting 6 14.4
2020-Aug-13 03:03 334 0 gusting 4 16.1
2020-Aug-13 02:03 353 2 gusting 5 18.3
2020-Aug-13 01:03 337 3 gusting 7 20.0
2020-Aug-13 00:03 032 4 gusting 6 20.6
2020-Aug-12 23:03 045 3 gusting 8 20.0
2020-Aug-12 22:03 354 3 gusting 8 20.0
2020-Aug-12 21:03 017 3 gusting 4 19.4
2020-Aug-12 20:03 302 0 gusting 4 18.9
2020-Aug-12 19:03 033 16.1
2020-Aug-12 18:03 329 16.7
2020-Aug-12 17:03 342 1 gusting 6 15.6
2020-Aug-12 16:03 291 4 gusting 6 15.6
2020-Aug-12 15:03 260 2 gusting 8 14.4
2020-Aug-12 14:03 304 2 gusting 5 13.3
2020-Aug-12 13:03 303 3 gusting 6 12.8
2020-Aug-12 12:03 299 3 gusting 6 12.2
2020-Aug-12 11:03 325 1 gusting 4 12.2
2020-Aug-12 10:03 353 5 gusting 9 13.3
2020-Aug-12 09:03 332 6 gusting 12 13.3
2020-Aug-12 08:03 339 7 gusting 17 13.3
2020-Aug-12 07:03 336 8 gusting 17 13.3
2020-Aug-12 06:03 328 8 gusting 21 13.3
2020-Aug-12 05:03 339 9 gusting 21 13.3
2020-Aug-12 04:03 357 11 gusting 22 13.9
2020-Aug-12 03:03 333 11 gusting 16 14.4
2020-Aug-12 01:03 329 6 gusting 10 16.7
2020-Aug-12 00:03 315 6 gusting 8 18.3
2020-Aug-11 23:03 006 3 gusting 7 20.0
2020-Aug-11 22:03 338 4 gusting 8 20.0
2020-Aug-11 21:03 013 2 gusting 6 19.4
2020-Aug-11 20:03 030 2 gusting 6 17.8
2020-Aug-11 19:03 206 3 gusting 9 17.8
2020-Aug-11 18:03 205 2 gusting 5 15.6
2020-Aug-11 17:03 273 3 gusting 5 13.9
2020-Aug-11 16:03 275 2 gusting 5 12.2